createdAt,value
2018-07-01T00:00:26.744Z,5.73
2018-07-01T00:02:54.718Z,6.70
2018-07-01T00:05:22.769Z,7.00
2018-07-01T00:07:50.748Z,6.40
2018-07-01T00:10:19.515Z,6.67
2018-07-01T00:12:47.304Z,6.60
2018-07-01T00:15:15.180Z,5.80
2018-07-01T00:17:42.945Z,7.00
2018-07-01T00:20:10.984Z,7.00
2018-07-01T00:22:39.308Z,7.30
2018-07-01T00:25:07.679Z,8.27
2018-07-01T00:27:35.357Z,8.20
2018-07-01T00:30:03.104Z,8.20
2018-07-01T00:32:31.151Z,7.90
2018-07-01T00:34:58.928Z,8.33
2018-07-01T00:37:26.769Z,7.97
2018-07-01T00:39:54.592Z,6.50
2018-07-01T00:42:22.357Z,7.00
2018-07-01T00:44:50.221Z,6.33
2018-07-01T00:47:17.907Z,6.67
2018-07-01T00:49:45.707Z,5.10
2018-07-01T00:52:13.537Z,5.97
2018-07-01T00:54:41.332Z,4.90
2018-07-01T00:57:09.184Z,5.50
2018-07-01T00:59:36.980Z,4.67
2018-07-01T01:02:04.929Z,4.90
2018-07-01T01:04:33.088Z,5.10
2018-07-01T01:07:00.872Z,4.57
2018-07-01T01:09:28.744Z,5.13
2018-07-01T01:11:56.539Z,4.13
2018-07-01T01:14:24.132Z,5.10
2018-07-01T01:16:51.672Z,4.67
2018-07-01T01:19:19.239Z,4.40
2018-07-01T01:21:46.828Z,4.63
2018-07-01T01:24:14.377Z,4.80
2018-07-01T01:26:41.932Z,4.77
2018-07-01T01:29:09.576Z,4.63
2018-07-01T01:31:37.494Z,4.40
2018-07-01T01:34:05.596Z,4.77
2018-07-01T01:36:35.620Z,4.33
2018-07-01T01:39:05.449Z,4.07
2018-07-01T01:41:40.824Z,4.07
2018-07-01T01:44:14.763Z,3.83
2018-07-01T01:46:46.948Z,4.13
2018-07-01T01:50:24.894Z,3.33
2018-07-01T01:53:09.297Z,2.80
2018-07-01T01:55:48.383Z,2.20
2018-07-01T01:58:21.546Z,2.40
2018-07-01T02:00:55.355Z,2.90
2018-07-01T02:03:28.991Z,2.30
2018-07-01T02:06:01.449Z,2.10
2018-07-01T02:08:37.632Z,2.10
2018-07-01T02:11:05.401Z,1.90
2018-07-01T02:13:34.840Z,2.20
2018-07-01T02:16:06.980Z,2.90
2018-07-01T02:18:34.995Z,2.13
2018-07-01T02:21:02.840Z,2.10
2018-07-01T02:23:40.315Z,2.50
2018-07-01T02:26:08.463Z,2.30
2018-07-01T02:28:37.591Z,2.20
2018-07-01T02:31:05.417Z,2.43
2018-07-01T02:33:33.100Z,2.30
2018-07-01T02:36:00.900Z,2.10
2018-07-01T02:38:28.703Z,2.43
2018-07-01T02:40:56.410Z,1.97
2018-07-01T02:43:24.199Z,1.73
2018-07-01T02:45:52.146Z,2.07
2018-07-01T02:48:20.153Z,2.00
2018-07-01T02:50:48.155Z,2.27
2018-07-01T02:53:16.133Z,1.67
2018-07-01T02:55:44.033Z,2.07
2018-07-01T02:58:11.916Z,1.70
2018-07-01T03:00:39.684Z,1.70
2018-07-01T03:03:07.561Z,1.93
2018-07-01T03:05:35.473Z,1.97
2018-07-01T03:08:03.344Z,2.00
2018-07-01T03:10:31.188Z,2.00
2018-07-01T03:12:59.092Z,2.10
2018-07-01T03:15:26.930Z,1.90
2018-07-01T03:17:54.728Z,2.00
2018-07-01T03:20:22.567Z,1.70
2018-07-01T03:22:50.575Z,1.73
2018-07-01T03:25:18.391Z,2.00
2018-07-01T03:27:46.175Z,1.80
2018-07-01T03:30:14.036Z,1.83
2018-07-01T03:32:41.805Z,1.73
2018-07-01T03:35:09.835Z,1.90
2018-07-01T03:37:37.620Z,1.73
2018-07-01T03:40:06.052Z,1.70
2018-07-01T03:42:33.953Z,1.63
2018-07-01T03:45:01.976Z,1.53
2018-07-01T03:47:29.486Z,1.77
2018-07-01T03:49:57.071Z,1.80
2018-07-01T03:52:24.624Z,1.93
2018-07-01T03:54:52.172Z,1.53
2018-07-01T03:57:19.736Z,1.60
2018-07-01T03:59:47.556Z,1.30
2018-07-01T04:02:15.071Z,1.50
2018-07-01T04:04:42.645Z,1.90
2018-07-01T04:07:10.842Z,1.30
2018-07-01T04:09:38.651Z,1.53
2018-07-01T04:12:06.521Z,1.80
2018-07-01T04:14:34.314Z,1.40
2018-07-01T04:17:02.328Z,1.47
2018-07-01T04:19:39.332Z,1.13
2018-07-01T04:22:08.451Z,1.30
2018-07-01T04:24:36.572Z,1.40
2018-07-01T04:27:04.605Z,1.60
2018-07-01T04:29:32.887Z,1.80
2018-07-01T04:32:00.924Z,1.50
2018-07-01T04:34:28.863Z,1.00
2018-07-01T04:36:56.885Z,1.60
2018-07-01T04:39:25.059Z,1.30
2018-07-01T04:41:53.079Z,1.53
2018-07-01T04:44:20.983Z,1.43
2018-07-01T04:46:48.972Z,1.13
2018-07-01T04:49:17.086Z,1.30
2018-07-01T04:51:44.965Z,1.20
2018-07-01T04:54:12.986Z,1.20
2018-07-01T04:56:40.939Z,1.53
2018-07-01T04:59:08.811Z,1.40
2018-07-01T05:01:36.880Z,1.30
2018-07-01T05:04:04.696Z,1.50
2018-07-01T05:06:32.555Z,1.63
2018-07-01T05:09:00.511Z,1.50
2018-07-01T05:11:28.448Z,2.23
2018-07-01T05:13:56.467Z,2.43
2018-07-01T05:16:24.302Z,4.90
2018-07-01T05:18:52.097Z,3.17
2018-07-01T05:21:20.016Z,2.30
2018-07-01T05:23:47.888Z,2.27
2018-07-01T05:26:15.693Z,2.00
2018-07-01T05:28:43.569Z,2.23
2018-07-01T05:31:11.320Z,2.23
2018-07-01T05:33:39.397Z,1.87
2018-07-01T05:36:07.296Z,1.90
2018-07-01T05:38:35.299Z,1.53
2018-07-01T05:41:03.153Z,1.00
2018-07-01T05:43:31.228Z,1.10
2018-07-01T05:45:59.210Z,1.00
2018-07-01T05:48:27.071Z,1.30
2018-07-01T05:50:54.823Z,1.00
2018-07-01T05:53:22.776Z,1.43
2018-07-01T05:55:50.820Z,1.30
2018-07-01T05:58:18.728Z,0.80
2018-07-01T06:00:46.609Z,1.10
2018-07-01T06:03:14.298Z,0.80
2018-07-01T06:05:42.001Z,0.90
2018-07-01T06:08:10.013Z,1.00
2018-07-01T06:10:37.908Z,0.93
2018-07-01T06:13:05.561Z,0.90
2018-07-01T06:15:33.206Z,0.70
2018-07-01T06:18:00.765Z,0.77
2018-07-01T06:20:28.671Z,0.87
2018-07-01T06:22:56.676Z,0.97
2018-07-01T06:25:24.633Z,1.00
2018-07-01T06:27:52.493Z,1.00
2018-07-01T06:30:20.283Z,1.00
2018-07-01T06:32:48.122Z,0.90
2018-07-01T06:35:15.916Z,0.90
2018-07-01T06:37:43.783Z,0.70
2018-07-01T06:40:11.547Z,1.30
2018-07-01T06:42:39.537Z,0.80
2018-07-01T06:45:07.394Z,0.60
2018-07-01T06:47:35.171Z,0.60
2018-07-01T06:50:03.063Z,1.00
2018-07-01T06:52:30.605Z,0.80
2018-07-01T06:54:58.162Z,0.60
2018-07-01T06:57:25.771Z,0.63
2018-07-01T06:59:53.304Z,0.67
2018-07-01T07:02:20.917Z,0.60
2018-07-01T07:04:48.492Z,0.60
2018-07-01T07:07:16.061Z,0.60
2018-07-01T07:09:43.632Z,0.77
2018-07-01T07:12:11.188Z,0.63
2018-07-01T07:14:38.837Z,0.70
2018-07-01T07:17:06.442Z,0.60
2018-07-01T07:19:34.027Z,0.70
2018-07-01T07:22:01.609Z,0.67
2018-07-01T07:24:29.187Z,0.80
2018-07-01T07:26:56.863Z,0.50
2018-07-01T07:29:24.465Z,0.60
2018-07-01T07:31:52.088Z,0.50
2018-07-01T07:34:19.605Z,0.70
2018-07-01T07:36:47.206Z,0.57
2018-07-01T07:39:14.747Z,0.90
2018-07-01T07:41:42.304Z,0.60
2018-07-01T07:44:09.907Z,0.60
2018-07-01T07:46:37.474Z,0.80
2018-07-01T07:49:05.038Z,0.90
2018-07-01T07:51:32.885Z,0.70
2018-07-01T07:54:00.525Z,0.57
2018-07-01T07:56:28.077Z,0.60
2018-07-01T07:58:55.619Z,0.53
2018-07-01T08:01:23.196Z,0.50
2018-07-01T08:03:50.749Z,0.60
2018-07-01T08:06:18.319Z,0.60
2018-07-01T08:08:45.901Z,0.50
2018-07-01T08:11:13.481Z,0.67
2018-07-01T08:13:41.012Z,0.60
2018-07-01T08:16:08.625Z,0.70
2018-07-01T08:18:36.155Z,0.70
2018-07-01T08:21:03.717Z,0.70
2018-07-01T08:23:31.463Z,0.60
2018-07-01T08:25:58.997Z,0.50
2018-07-01T08:28:26.595Z,0.60
2018-07-01T08:30:54.172Z,0.57
2018-07-01T08:33:21.819Z,0.60
2018-07-01T08:35:49.411Z,0.53
2018-07-01T08:38:16.973Z,0.70
2018-07-01T08:40:44.527Z,0.60
2018-07-01T08:43:12.076Z,0.70
2018-07-01T08:45:39.669Z,0.60
2018-07-01T08:48:07.389Z,0.63
2018-07-01T08:50:35.032Z,0.60
2018-07-01T08:53:02.840Z,0.47
2018-07-01T08:55:30.687Z,0.70
2018-07-01T08:57:58.478Z,0.77
2018-07-01T09:00:26.420Z,0.77
2018-07-01T09:02:54.352Z,0.60
2018-07-01T09:05:22.261Z,1.10
2018-07-01T09:07:50.057Z,0.63
2018-07-01T09:10:17.951Z,0.57
2018-07-01T09:12:45.999Z,0.70
2018-07-01T09:15:13.994Z,0.60
2018-07-01T09:17:41.908Z,0.80
2018-07-01T09:20:09.788Z,0.63
2018-07-01T09:22:37.473Z,0.77
2018-07-01T09:25:05.463Z,0.70
2018-07-01T09:27:33.595Z,0.60
2018-07-01T09:30:02.548Z,0.70
2018-07-01T09:32:31.068Z,0.60
2018-07-01T09:34:59.080Z,0.60
2018-07-01T09:37:26.999Z,0.77
2018-07-01T09:39:55.009Z,0.70
2018-07-01T09:42:22.833Z,0.53
2018-07-01T09:44:50.776Z,0.60
2018-07-01T09:47:19.033Z,0.70
2018-07-01T09:49:46.839Z,0.60
2018-07-01T09:52:14.800Z,0.70
2018-07-01T09:54:42.656Z,0.60
2018-07-01T09:57:10.506Z,0.70
2018-07-01T09:59:38.417Z,0.60
2018-07-01T10:02:06.284Z,0.60
2018-07-01T10:04:34.116Z,0.80
2018-07-01T10:07:01.906Z,0.70
2018-07-01T10:09:29.717Z,0.67
2018-07-01T10:11:57.639Z,0.60
2018-07-01T10:14:25.548Z,0.57
2018-07-01T10:16:53.360Z,0.60
2018-07-01T10:19:21.331Z,0.70
2018-07-01T10:21:49.166Z,0.80
2018-07-01T10:24:17.139Z,0.90
2018-07-01T10:26:44.972Z,0.80
2018-07-01T10:29:13.761Z,0.90
2018-07-01T10:31:43.022Z,0.60
2018-07-01T10:34:11.910Z,0.70
2018-07-01T10:36:39.965Z,0.90
2018-07-01T10:39:11.337Z,0.57
2018-07-01T10:41:39.113Z,0.60
2018-07-01T10:44:06.816Z,0.67
2018-07-01T10:46:34.921Z,1.00
2018-07-01T10:49:02.697Z,1.10
2018-07-01T10:51:30.383Z,0.80
2018-07-01T10:53:58.219Z,0.80
2018-07-01T10:56:26.125Z,0.83
2018-07-01T10:58:54.022Z,0.70
2018-07-01T11:01:21.843Z,0.67
2018-07-01T11:03:49.764Z,0.70
2018-07-01T11:06:17.753Z,0.60
2018-07-01T11:08:45.729Z,0.70
2018-07-01T11:11:13.709Z,0.50
2018-07-01T11:13:41.501Z,0.63
2018-07-01T11:16:09.223Z,0.77
2018-07-01T11:18:37.041Z,0.90
2018-07-01T11:21:04.809Z,0.67
2018-07-01T11:23:32.627Z,0.60
2018-07-01T11:26:01.045Z,0.60
2018-07-01T11:28:28.764Z,0.80
2018-07-01T11:30:56.513Z,0.83
2018-07-01T11:33:24.588Z,0.77
2018-07-01T11:35:52.520Z,0.80
2018-07-01T11:38:20.358Z,1.17
2018-07-01T11:40:48.144Z,0.90
2018-07-01T11:43:15.996Z,0.80
2018-07-01T11:45:43.801Z,0.90
2018-07-01T11:48:11.675Z,0.80
2018-07-01T11:50:39.612Z,0.77
2018-07-01T11:53:07.283Z,0.83
2018-07-01T11:55:35.100Z,1.20
2018-07-01T11:58:03.371Z,1.00
2018-07-01T12:00:31.360Z,0.87
2018-07-01T12:02:59.206Z,0.70
2018-07-01T12:05:27.041Z,0.80
2018-07-01T12:07:55.329Z,0.60
2018-07-01T12:10:23.604Z,0.90
2018-07-01T12:12:51.517Z,0.80
2018-07-01T12:15:19.328Z,0.90
2018-07-01T12:17:47.132Z,0.83
2018-07-01T12:20:15.132Z,0.70
2018-07-01T12:22:42.959Z,0.80
2018-07-01T12:25:10.792Z,0.83
2018-07-01T12:27:38.739Z,0.90
2018-07-01T12:30:07.497Z,0.90
2018-07-01T12:32:35.336Z,1.20
2018-07-01T12:35:03.213Z,1.50
2018-07-01T12:37:31.282Z,1.50
2018-07-01T12:39:59.191Z,0.90
2018-07-01T12:42:27.222Z,1.00
2018-07-01T12:44:55.112Z,0.90
2018-07-01T12:47:23.098Z,0.80
2018-07-01T12:49:51.123Z,1.10
2018-07-01T12:52:19.151Z,3.03
2018-07-01T12:54:47.164Z,0.90
2018-07-01T12:57:14.929Z,0.80
2018-07-01T12:59:42.743Z,0.80
2018-07-01T13:02:10.891Z,0.97
2018-07-01T13:04:38.656Z,0.80
2018-07-01T13:07:06.605Z,0.80
2018-07-01T13:09:34.492Z,0.70
2018-07-01T13:12:02.196Z,0.90
2018-07-01T13:14:29.828Z,0.80
2018-07-01T13:16:57.503Z,0.63
2018-07-01T13:19:25.117Z,0.90
2018-07-01T13:21:52.882Z,0.70
2018-07-01T13:24:21.219Z,0.80
2018-07-01T13:26:49.239Z,0.70
2018-07-01T13:29:17.017Z,0.67
2018-07-01T13:31:44.701Z,0.67
2018-07-01T13:34:12.513Z,0.70
2018-07-01T13:36:40.343Z,0.80
2018-07-01T13:39:09.023Z,0.80
2018-07-01T13:41:36.923Z,1.10
2018-07-01T13:44:05.315Z,0.90
2018-07-01T13:46:33.174Z,0.80
2018-07-01T13:49:01.002Z,0.80
2018-07-01T13:51:28.840Z,0.83
2018-07-01T13:53:56.589Z,0.73
2018-07-01T13:56:24.637Z,0.80
2018-07-01T13:58:52.750Z,0.90
2018-07-01T14:01:20.391Z,0.83
2018-07-01T14:03:48.269Z,0.70
2018-07-01T14:06:16.218Z,0.90
2018-07-01T14:08:44.130Z,0.70
2018-07-01T14:11:12.168Z,0.80
2018-07-01T14:13:40.076Z,0.63
2018-07-01T14:16:08.692Z,0.60
2018-07-01T14:18:36.699Z,0.83
2018-07-01T14:21:04.552Z,0.97
2018-07-01T14:23:32.485Z,0.90
2018-07-01T14:26:00.316Z,0.80
2018-07-01T14:28:28.260Z,0.70
2018-07-01T14:30:56.090Z,1.00
2018-07-01T14:33:24.122Z,0.80
2018-07-01T14:35:52.176Z,0.80
2018-07-01T14:38:20.159Z,1.20
2018-07-01T14:40:48.352Z,1.20
2018-07-01T14:43:16.262Z,1.00
2018-07-01T14:45:43.929Z,0.70
2018-07-01T14:48:11.745Z,0.70
2018-07-01T14:50:39.648Z,1.00
2018-07-01T14:53:07.401Z,1.30
2018-07-01T14:55:35.248Z,1.47
2018-07-01T14:58:04.026Z,1.30
2018-07-01T15:00:31.928Z,0.60
2018-07-01T15:02:59.818Z,0.80
2018-07-01T15:05:27.893Z,0.70
2018-07-01T15:07:55.851Z,0.93
2018-07-01T15:10:23.808Z,1.80
2018-07-01T15:12:51.787Z,0.77
2018-07-01T15:15:19.657Z,1.20
2018-07-01T15:17:47.383Z,1.00
2018-07-01T15:20:15.397Z,1.23
2018-07-01T15:22:43.391Z,0.90
2018-07-01T15:25:11.284Z,0.77
2018-07-01T15:27:39.279Z,0.87
2018-07-01T15:30:07.579Z,0.97
2018-07-01T15:32:35.476Z,1.00
2018-07-01T15:35:03.125Z,0.80
2018-07-01T15:37:30.945Z,1.10
2018-07-01T15:39:58.871Z,0.80
2018-07-01T15:42:26.852Z,0.97
2018-07-01T15:44:54.800Z,0.80
2018-07-01T15:47:23.436Z,0.90
2018-07-01T15:49:51.273Z,0.80
2018-07-01T15:52:19.031Z,0.70
2018-07-01T15:54:47.047Z,0.90
2018-07-01T15:57:14.903Z,0.70
2018-07-01T15:59:42.732Z,0.80
2018-07-01T16:02:10.615Z,0.87
2018-07-01T16:04:38.633Z,0.70
2018-07-01T16:07:06.564Z,0.80
2018-07-01T16:09:34.486Z,0.90
2018-07-01T16:12:02.256Z,0.90
2018-07-01T16:14:30.398Z,0.80
2018-07-01T16:16:58.180Z,0.70
2018-07-01T16:19:26.220Z,0.80
2018-07-01T16:21:54.710Z,0.70
2018-07-01T16:24:22.799Z,0.90
2018-07-01T16:26:55.407Z,0.80
2018-07-01T16:29:23.319Z,0.90
2018-07-01T16:31:51.135Z,0.97
2018-07-01T16:34:18.956Z,1.10
2018-07-01T16:36:46.907Z,0.70
2018-07-01T16:39:14.760Z,0.90
2018-07-01T16:41:42.576Z,1.00
2018-07-01T16:44:10.531Z,1.03
2018-07-01T16:46:38.388Z,0.90
2018-07-01T16:49:06.105Z,1.00
2018-07-01T16:51:34.018Z,1.00
2018-07-01T16:54:01.836Z,1.00
2018-07-01T16:56:29.645Z,0.90
2018-07-01T16:58:57.589Z,0.80
2018-07-01T17:01:25.452Z,0.87
2018-07-01T17:03:53.272Z,0.80
2018-07-01T17:06:21.108Z,0.77
2018-07-01T17:08:49.037Z,0.87
2018-07-01T17:11:16.861Z,1.00
2018-07-01T17:13:44.741Z,0.80
2018-07-01T17:16:12.633Z,1.10
2018-07-01T17:18:40.508Z,1.13
2018-07-01T17:21:08.472Z,0.90
2018-07-01T17:23:36.313Z,0.87
2018-07-01T17:26:04.838Z,0.90
2018-07-01T17:28:32.721Z,1.20
2018-07-01T17:31:05.577Z,0.70
2018-07-01T17:33:34.752Z,1.20
2018-07-01T17:36:02.639Z,0.83
2018-07-01T17:38:30.314Z,1.10
2018-07-01T17:40:57.845Z,0.83
2018-07-01T17:43:25.439Z,1.60
2018-07-01T17:45:53.039Z,1.27
2018-07-01T17:48:20.632Z,1.03
2018-07-01T17:50:48.208Z,1.20
2018-07-01T17:53:21.409Z,1.07
2018-07-01T17:55:48.901Z,0.97
2018-07-01T17:58:16.461Z,0.90
2018-07-01T18:00:44.156Z,0.80
2018-07-01T18:03:11.849Z,0.93
2018-07-01T18:05:39.376Z,1.00
2018-07-01T18:08:06.937Z,1.20
2018-07-01T18:10:34.568Z,1.20
2018-07-01T18:13:02.111Z,0.90
2018-07-01T18:15:29.657Z,1.10
2018-07-01T18:17:57.336Z,1.20
2018-07-01T18:20:25.279Z,1.10
2018-07-01T18:23:18.241Z,1.53
2018-07-01T18:25:21.116Z,1.20
2018-07-01T18:27:56.132Z,1.00
2018-07-01T18:30:16.920Z,0.90
2018-07-01T18:32:44.894Z,1.27
2018-07-01T18:35:12.872Z,0.87
2018-07-01T18:37:40.597Z,1.00
2018-07-01T18:40:08.452Z,1.97
2018-07-01T18:42:36.322Z,2.20
2018-07-01T18:45:04.219Z,1.80
2018-07-01T18:47:32.449Z,1.53
2018-07-01T18:50:00.275Z,1.90
2018-07-01T18:52:29.480Z,1.70
2018-07-01T18:54:57.502Z,1.20
2018-07-01T18:57:25.272Z,1.20
2018-07-01T18:59:54.224Z,1.00
2018-07-01T19:02:21.959Z,1.37
2018-07-01T19:04:49.825Z,1.03
2018-07-01T19:07:17.631Z,0.90
2018-07-01T19:09:45.520Z,1.40
2018-07-01T19:12:13.297Z,1.10
2018-07-01T19:14:41.237Z,1.20
2018-07-01T19:17:09.158Z,1.10
2018-07-01T19:19:37.208Z,1.47
2018-07-01T19:22:05.008Z,0.70
2018-07-01T19:24:32.892Z,0.90
2018-07-01T19:27:00.828Z,0.70
2018-07-01T19:29:28.684Z,1.00
2018-07-01T19:31:56.389Z,1.07
2018-07-01T19:34:24.457Z,0.90
2018-07-01T19:36:52.272Z,0.97
2018-07-01T19:39:19.976Z,1.00
2018-07-01T19:41:47.748Z,1.17
2018-07-01T19:44:15.753Z,1.00
2018-07-01T19:46:43.568Z,1.00
2018-07-01T19:49:11.376Z,1.10
2018-07-01T19:51:39.319Z,0.87
2018-07-01T19:54:07.332Z,1.00
2018-07-01T19:56:35.274Z,1.10
2018-07-01T19:59:03.238Z,1.00
2018-07-01T20:01:31.237Z,1.40
2018-07-01T20:03:59.063Z,1.40
2018-07-01T20:06:26.915Z,0.93
2018-07-01T20:08:54.847Z,0.83
2018-07-01T20:11:22.687Z,1.00
2018-07-01T20:13:50.416Z,1.00
2018-07-01T20:16:18.744Z,0.97
2018-07-01T20:18:46.416Z,1.00
2018-07-01T20:21:14.312Z,1.10
2018-07-01T20:23:43.032Z,0.90
2018-07-01T20:26:10.856Z,0.90
2018-07-01T20:28:38.671Z,0.97
2018-07-01T20:31:06.617Z,1.27
2018-07-01T20:33:35.184Z,1.10
2018-07-01T20:36:03.106Z,1.10
2018-07-01T20:38:31.156Z,1.07
2018-07-01T20:40:59.171Z,0.97
2018-07-01T20:43:27.015Z,1.03
2018-07-01T20:45:55.025Z,1.10
2018-07-01T20:48:22.946Z,1.00
2018-07-01T20:50:50.515Z,1.23
2018-07-01T20:53:18.409Z,1.10
2018-07-01T20:55:46.946Z,1.17
2018-07-01T20:58:14.959Z,1.43
2018-07-01T21:00:42.964Z,1.20
2018-07-01T21:03:10.754Z,1.60
2018-07-01T21:05:38.635Z,1.10
2018-07-01T21:08:06.439Z,1.60
2018-07-01T21:10:34.196Z,1.40
2018-07-01T21:13:02.162Z,1.17
2018-07-01T21:15:30.168Z,3.47
2018-07-01T21:17:58.121Z,1.87
2018-07-01T21:20:26.057Z,1.60
2018-07-01T21:22:53.975Z,1.80
2018-07-01T21:25:21.759Z,1.70
2018-07-01T21:27:49.784Z,1.83
2018-07-01T21:30:17.621Z,1.90
2018-07-01T21:32:45.505Z,2.00
2018-07-01T21:35:13.365Z,1.50
2018-07-01T21:37:41.632Z,1.43
2018-07-01T21:40:09.495Z,2.10
2018-07-01T21:42:37.424Z,2.00
2018-07-01T21:45:05.884Z,1.50
2018-07-01T21:47:33.711Z,2.43
2018-07-01T21:50:01.699Z,2.00
2018-07-01T21:52:29.768Z,1.87
2018-07-01T21:54:57.776Z,1.70
2018-07-01T21:57:25.727Z,2.10
2018-07-01T21:59:53.556Z,1.63
2018-07-01T22:02:21.234Z,1.80
2018-07-01T22:04:48.893Z,1.47
2018-07-01T22:07:16.476Z,1.90
2018-07-01T22:09:44.032Z,1.63
2018-07-01T22:14:21.337Z,1.70
2018-07-01T22:16:48.988Z,1.57
2018-07-01T22:19:17.560Z,1.60
2018-07-01T22:21:45.897Z,1.87
2018-07-01T22:24:14.383Z,1.93
2018-07-01T22:26:42.636Z,1.93
2018-07-01T22:29:11.318Z,1.80
2018-07-01T22:31:38.953Z,1.60
2018-07-01T22:34:06.540Z,1.50
2018-07-01T22:36:34.431Z,1.33
2018-07-01T22:39:02.015Z,1.97
2018-07-01T22:41:29.548Z,1.70
2018-07-01T22:43:57.144Z,1.83
2018-07-01T22:46:24.724Z,1.80
2018-07-01T22:48:52.328Z,1.70
2018-07-01T22:51:19.944Z,1.90
2018-07-01T22:53:47.553Z,1.60
2018-07-01T22:56:15.152Z,2.03
2018-07-01T22:58:42.731Z,2.00
2018-07-01T23:01:10.367Z,2.30
2018-07-01T23:03:37.947Z,2.23
2018-07-01T23:06:05.556Z,2.50
2018-07-01T23:08:33.155Z,2.00
2018-07-01T23:11:00.752Z,1.80
2018-07-01T23:13:28.341Z,1.80
2018-07-01T23:15:55.948Z,1.90
2018-07-01T23:18:23.524Z,1.70
2018-07-01T23:20:51.089Z,2.20
2018-07-01T23:23:18.656Z,1.87
2018-07-01T23:25:46.240Z,1.93
2018-07-01T23:28:13.776Z,1.63
2018-07-01T23:30:41.428Z,1.97
2018-07-01T23:33:09.048Z,1.90
2018-07-01T23:35:36.680Z,2.20
2018-07-01T23:38:04.277Z,2.30
2018-07-01T23:40:31.875Z,2.23
2018-07-01T23:42:59.484Z,2.40
2018-07-01T23:45:27.044Z,1.97
2018-07-01T23:47:54.737Z,2.40
2018-07-01T23:50:22.373Z,2.00
2018-07-01T23:52:49.941Z,2.30
2018-07-01T23:55:17.588Z,2.17
2018-07-01T23:57:45.177Z,2.20
